Airfield :
LOGIN :

Register | Disclaimer

   EN    FR    IT 

 










Legend :    VFR   Marginal VFR   IFR   Intensive IFR   Very Intensive IFR
Visi :
Ceiling :
>= 8 km
>= 3000ft
5 to 8 km
1000 to 3000 ft
1500m to 5 km
500 to 1000 ft
800 to 1500m
200 to 500 ft
< 800m
< 200 ft
Symbols :   Thunderstorms  Fog  Heavy snow  Heavy precipitations  Wind > 20 kt
SIGMETs :     Misc.  Thunderstorms  Icing  Turbulence  Mountain Waves  Volcanic Ashes






- Airport Elevation : 459 ft
- IATA code : CER


LFRC - Cherbourg / Maupertus

CURRENT METAR :
  • 101300Z AUTO 19025G38KT 9999 BKN011 OVC016 08/07 Q1015

EXPIRED METARs :
  • 101230Z AUTO 20025G36KT 9999 BKN009 OVC170 08/07 Q1015
  • 101200Z AUTO 19024G37KT 9999 OVC008 08/07 Q1016
  • 101130Z AUTO 20024G37KT 9999 OVC008/// ///TCU 07/06 Q1017
  • 101100Z AUTO 20021G32KT 9999 -RA BKN010/// OVC049/// ///TCU 07/06 Q1018
  • 101030Z AUTO 20024G35KT 9999 -RA FEW016/// SCT042/// BKN072/// ///TCU 07/06 Q1019

Expired Forecast.



MET'MAP, your aeronautical weather chart ! - Copyright ORBIFLY December 2007 - Disclaimer

ORBIFLY MET'MAP TEAM :

Programming & Development : Alexandra Zaïnal
Concept & original design : Baudouin d'Aumeries
Assistance for programming : Marc-Olivier Méhu
Technical & hardware support : Manuel Goepfert

Contact : metmap@orbifly.com




SOURCES & CREDITS :

   NOAA